Time;durP1;ratioP1;P1;durP2;ratioP2;P2;SDS_P1;SDS_P2;PMS_P1;PMS_P2;Temp;Humidity;BMP_temperature;BMP_pressure;BME280_temperature;BME280_humidity;BME280_pressure;Samples;Min_cycle;Max_cycle;Signal;HPM_P1;HPM_P2
2023/05/05 00:01:34;;;;;;;40.20;28.00;;;;;;;14.81;96.43;99801.19;5022773;28;20189;-67
2023/05/05 00:04:00;;;;;;;28.50;21.70;;;;;;;14.79;96.05;99798.72;5021418;28;20200;-68
2023/05/05 00:06:28;;;;;;;27.27;20.30;;;;;;;14.74;96.45;99801.22;5020742;28;20213;-68
2023/05/05 00:08:55;;;;;;;18.80;15.70;;;;;;;14.78;96.54;99801.59;5022319;28;20193;-67
2023/05/05 00:11:24;;;;;;;19.33;16.50;;;;;;;14.81;96.76;99799.34;5022778;28;20281;-68
2023/05/05 00:13:51;;;;;;;18.70;14.40;;;;;;;14.83;96.22;99797.25;5014978;28;20189;-67
2023/05/05 00:16:18;;;;;;;18.37;15.23;;;;;;;14.83;97.09;99799.13;5021839;28;20240;-68
2023/05/05 00:18:44;;;;;;;21.67;13.80;;;;;;;14.82;96.94;99787.59;5020838;28;20771;-67
2023/05/05 00:21:11;;;;;;;14.37;12.87;;;;;;;14.79;96.58;99793.38;5012771;28;20728;-68
2023/05/05 00:23:38;;;;;;;15.00;13.50;;;;;;;14.71;96.75;99774.09;5014124;28;20256;-68
2023/05/05 00:26:05;;;;;;;14.23;12.83;;;;;;;14.75;96.71;99789.50;5011374;28;20221;-68
2023/05/05 00:28:33;;;;;;;14.10;12.50;;;;;;;14.68;96.38;99790.56;5010431;28;20226;-68
2023/05/05 00:31:00;;;;;;;15.67;13.43;;;;;;;14.59;96.85;99792.66;5012303;28;20182;-68
2023/05/05 00:33:27;;;;;;;15.10;13.50;;;;;;;14.54;97.23;99795.19;5012092;28;20201;-68
2023/05/05 00:35:53;;;;;;;14.50;13.13;;;;;;;14.55;97.44;99786.13;5012193;28;20626;-68
2023/05/05 00:38:20;;;;;;;15.97;14.37;;;;;;;14.58;97.69;99785.69;5026854;28;20201;-67
2023/05/05 00:40:47;;;;;;;15.00;13.57;;;;;;;14.56;97.67;99787.78;5031658;28;20205;-67
2023/05/05 00:43:13;;;;;;;16.80;14.90;;;;;;;14.53;97.57;99780.19;5031982;28;20262;-67
2023/05/05 00:45:46;;;;;;;17.30;15.27;;;;;;;14.58;98.25;99782.22;5031939;28;20283;-67
2023/05/05 00:48:13;;;;;;;17.27;15.37;;;;;;;14.65;98.02;99786.47;5017562;28;20186;-68
2023/05/05 00:50:44;;;;;;;16.13;14.40;;;;;;;14.67;97.48;99780.94;5012306;28;20202;-68
2023/05/05 00:53:11;;;;;;;17.20;15.47;;;;;;;14.70;96.99;99783.97;5012272;28;20248;-69
2023/05/05 00:55:38;;;;;;;17.83;15.73;;;;;;;14.74;98.23;99789.69;5017441;28;20673;-68
2023/05/05 00:58:05;;;;;;;18.93;16.63;;;;;;;14.82;98.34;99792.94;5031643;28;20255;-68
2023/05/05 01:00:33;;;;;;;19.17;16.07;;;;;;;14.86;97.93;99780.78;5031847;28;20196;-68
2023/05/05 01:03:01;;;;;;;19.07;15.70;;;;;;;14.95;97.50;99778.69;5031725;28;20248;-68
2023/05/05 01:05:36;;;;;;;20.17;15.20;;;;;;;15.01;97.12;99781.31;5015755;28;20217;-68
2023/05/05 01:08:17;;;;;;;18.67;15.10;;;;;;;15.03;96.94;99781.88;5031627;28;20184;-68
2023/05/05 01:10:53;;;;;;;16.63;14.87;;;;;;;15.05;96.66;99782.50;5031592;28;20186;-68
2023/05/05 01:13:30;;;;;;;15.70;14.00;;;;;;;15.08;96.39;99771.34;5031575;28;20665;-68
2023/05/05 01:16:03;;;;;;;16.67;14.20;;;;;;;15.11;96.55;99770.91;5031874;28;20258;-68
2023/05/05 01:18:41;;;;;;;16.47;14.10;;;;;;;15.10;97.08;99768.47;5020568;28;20186;-68
2023/05/05 01:21:13;;;;;;;19.23;14.73;;;;;;;15.01;96.92;99754.56;5011492;28;20642;-68
2023/05/05 01:24:06;;;;;;;18.97;15.63;;;;;;;15.05;95.85;99760.28;5011540;28;20190;-67
2023/05/05 01:26:55;;;;;;;21.33;15.57;;;;;;;15.03;95.49;99762.38;5012293;28;20216;-67
2023/05/05 01:29:38;;;;;;;19.77;15.90;;;;;;;15.00;95.37;99766.25;5011099;28;20658;-67
2023/05/05 01:32:09;;;;;;;21.90;16.23;;;;;;;14.95;95.56;99760.75;5031874;28;20182;-67
2023/05/05 01:34:41;;;;;;;18.10;14.53;;;;;;;14.93;95.26;99760.16;5031586;28;20186;-68
2023/05/05 01:37:12;;;;;;;17.50;14.67;;;;;;;14.90;95.71;99757.91;5031408;28;20185;-67
2023/05/05 01:39:41;;;;;;;14.33;12.93;;;;;;;14.87;95.58;99758.34;5031374;28;20182;-67
2023/05/05 01:42:12;;;;;;;17.07;13.80;;;;;;;14.82;95.55;99755.50;5019534;28;20252;-68
2023/05/05 01:44:42;;;;;;;14.70;13.10;;;;;;;14.79;95.76;99753.25;5011787;28;20562;-68
2023/05/05 01:47:13;;;;;;;15.23;12.77;;;;;;;14.76;96.33;99745.69;5011436;28;20709;-68
2023/05/05 01:49:42;;;;;;;16.70;13.87;;;;;;;14.75;96.76;99749.38;5011418;28;20248;-68
2023/05/05 01:52:11;;;;;;;16.47;14.10;;;;;;;14.60;96.45;99724.81;5012607;28;20252;-68
2023/05/05 01:54:39;;;;;;;17.53;14.63;;;;;;;14.82;96.98;99750.16;5030233;28;20224;-68
2023/05/05 01:57:08;;;;;;;18.13;14.53;;;;;;;14.80;96.77;99754.91;5020251;28;20202;-68
2023/05/05 01:59:36;;;;;;;18.13;14.97;;;;;;;14.70;96.90;99738.53;5014803;28;20194;-69
2023/05/05 02:02:03;;;;;;;17.77;15.10;;;;;;;14.82;97.37;99752.84;5015221;28;20202;-68
2023/05/05 02:04:33;;;;;;;20.90;13.87;;;;;;;14.83;97.23;99745.66;5027454;28;20193;-68
2023/05/05 02:07:01;;;;;;;21.17;15.27;;;;;;;14.86;97.80;99748.69;5032958;28;20779;-67
2023/05/05 02:09:29;;;;;;;21.40;15.50;;;;;;;14.81;97.24;99745.84;5034854;28;20345;-67
2023/05/05 02:11:58;;;;;;;19.50;13.63;;;;;;;14.71;97.20;99747.38;5025645;28;20566;-67
2023/05/05 02:14:27;;;;;;;19.00;14.87;;;;;;;14.73;97.62;99748.78;5023643;28;20190;-67
2023/05/05 02:16:56;;;;;;;18.27;13.80;;;;;;;14.67;97.41;99751.50;5022756;28;20237;-67
2023/05/05 02:19:28;;;;;;;16.97;13.40;;;;;;;14.58;98.23;99744.78;5024257;28;20198;-67
2023/05/05 02:21:56;;;;;;;20.63;14.37;;;;;;;14.47;98.11;99746.28;5022661;28;20244;-68
2023/05/05 02:24:24;;;;;;;14.23;12.70;;;;;;;14.39;98.25;99743.03;5024511;28;20740;-67
2023/05/05 02:26:52;;;;;;;15.87;14.13;;;;;;;14.32;98.94;99748.44;5025472;28;20213;-68
2023/05/05 02:29:24;;;;;;;20.50;13.27;;;;;;;14.32;99.24;99748.44;5023614;28;20612;-68
2023/05/05 02:31:55;;;;;;;22.93;13.83;;;;;;;14.31;99.53;99751.31;5023101;28;20237;-68
2023/05/05 02:34:29;;;;;;;17.40;13.90;;;;;;;14.30;99.29;99745.13;5023494;28;20185;-68
2023/05/05 02:37:00;;;;;;;19.80;14.47;;;;;;;14.31;99.69;99741.44;5021580;28;20242;-68
2023/05/05 02:39:32;;;;;;;19.57;14.17;;;;;;;14.40;99.06;99742.84;5024536;28;20183;-68
2023/05/05 02:42:02;;;;;;;17.37;13.80;;;;;;;14.41;99.37;99741.78;5023866;28;20256;-69
2023/05/05 02:44:32;;;;;;;20.23;15.17;;;;;;;14.40;98.76;99742.00;5022899;28;20221;-68
2023/05/05 02:46:59;;;;;;;17.70;14.33;;;;;;;14.37;99.49;99740.59;5023667;28;20237;-68
2023/05/05 02:49:27;;;;;;;17.67;13.57;;;;;;;14.29;99.76;99743.50;5022930;28;20247;-69
2023/05/05 02:51:53;;;;;;;15.67;13.53;;;;;;;14.20;100.00;99742.09;5017028;28;20244;-68
2023/05/05 02:54:21;;;;;;;15.90;14.30;;;;;;;14.09;100.00;99742.75;5023616;28;20190;-68
2023/05/05 02:56:50;;;;;;;15.30;13.70;;;;;;;14.19;100.00;99737.78;5021857;28;20264;-69
2023/05/05 02:59:22;;;;;;;16.40;14.77;;;;;;;14.15;100.00;99741.91;5023678;28;20680;-68
2023/05/05 03:01:57;;;;;;;18.03;14.20;;;;;;;14.19;100.00;99742.28;5026233;28;20240;-68
2023/05/05 03:04:29;;;;;;;15.27;13.47;;;;;;;14.11;100.00;99743.38;5022555;28;20181;-68
2023/05/05 03:06:59;;;;;;;17.83;13.43;;;;;;;14.13;100.00;99741.28;5021345;28;20631;-68
2023/05/05 03:09:33;;;;;;;14.50;13.00;;;;;;;14.21;100.00;99741.06;5023824;28;20249;-70
2023/05/05 03:12:02;;;;;;;15.10;13.17;;;;;;;14.15;100.00;99744.59;5023181;28;20252;-68
2023/05/05 03:14:34;;;;;;;14.53;13.10;;;;;;;14.08;100.00;99730.44;5022179;28;20205;-68
2023/05/05 03:17:02;;;;;;;15.27;13.57;;;;;;;14.20;100.00;99744.75;5023115;28;20263;-68
2023/05/05 03:19:30;;;;;;;14.83;12.53;;;;;;;14.29;100.00;99742.69;5023786;28;20193;-69
2023/05/05 03:21:57;;;;;;;13.70;12.30;;;;;;;14.28;100.00;99739.19;5022574;28;20190;-68
2023/05/05 03:24:24;;;;;;;13.03;11.63;;;;;;;14.30;100.00;99747.81;5022704;28;20186;-67
2023/05/05 03:26:52;;;;;;;12.33;11.13;;;;;;;14.37;100.00;99750.44;5023940;28;20267;-68
2023/05/05 03:29:19;;;;;;;12.37;11.10;;;;;;;14.35;100.00;99753.34;5022826;28;20214;-67
2023/05/05 03:31:46;;;;;;;11.90;10.83;;;;;;;14.43;99.73;99749.59;5022204;28;20189;-67
2023/05/05 03:34:12;;;;;;;11.80;10.70;;;;;;;14.41;99.63;99757.81;5023712;28;20701;-67
2023/05/05 03:36:40;;;;;;;11.83;10.63;;;;;;;14.42;99.27;99754.13;5022034;28;20194;-69
2023/05/05 03:39:07;;;;;;;11.93;10.73;;;;;;;14.35;99.52;99761.38;5021437;28;20197;-67
2023/05/05 03:41:34;;;;;;;12.87;11.17;;;;;;;14.34;100.00;99765.06;5022684;28;20212;-69
2023/05/05 03:44:02;;;;;;;20.17;11.90;;;;;;;14.31;100.00;99768.19;5022450;28;20202;-69
2023/05/05 03:46:29;;;;;;;14.20;11.73;;;;;;;14.27;100.00;99772.31;5023609;28;20189;-68
2023/05/05 03:48:56;;;;;;;21.80;12.30;;;;;;;14.18;100.00;99768.19;5021756;28;20666;-69
2023/05/05 03:51:24;;;;;;;18.63;12.80;;;;;;;14.19;100.00;99775.19;5021883;28;20680;-69
2023/05/05 03:53:51;;;;;;;15.03;11.97;;;;;;;14.12;100.00;99774.38;5020997;28;20190;-68
2023/05/05 03:56:17;;;;;;;18.67;12.10;;;;;;;14.08;100.00;99778.50;5022917;28;20190;-67
2023/05/05 03:58:44;;;;;;;13.50;12.10;;;;;;;14.10;100.00;99781.78;5023017;28;20244;-67
2023/05/05 04:01:12;;;;;;;14.53;12.10;;;;;;;14.12;100.00;99785.06;5021010;28;20197;-67
2023/05/05 04:03:39;;;;;;;17.97;12.60;;;;;;;14.13;100.00;99786.69;5022346;28;20589;-67
2023/05/05 04:06:06;;;;;;;13.47;12.10;;;;;;;14.10;100.00;99781.78;5021562;28;20208;-67
2023/05/05 04:08:32;;;;;;;13.03;11.70;;;;;;;14.04;100.00;99789.81;5023243;28;20209;-67
2023/05/05 04:11:01;;;;;;;15.20;11.30;;;;;;;13.98;100.00;99783.50;5021716;28;20198;-67
2023/05/05 04:13:27;;;;;;;15.73;11.77;;;;;;;13.85;100.00;99783.50;5020303;28;20217;-67
2023/05/05 04:15:54;;;;;;;20.30;10.37;;;;;;;13.92;100.00;99776.31;5012109;28;20617;-67
2023/05/05 04:18:23;;;;;;;13.67;11.03;;;;;;;13.88;100.00;99785.75;5022168;28;20197;-67
2023/05/05 04:20:49;;;;;;;15.47;11.10;;;;;;;13.95;100.00;99783.91;5022717;28;20195;-67
2023/05/05 04:23:16;;;;;;;12.47;10.23;;;;;;;13.86;100.00;99785.16;5020413;28;20596;-68
2023/05/05 04:25:43;;;;;;;11.50;9.93;;;;;;;13.83;100.00;99790.91;5021966;28;20194;-68
2023/05/05 04:28:09;;;;;;;11.00;10.10;;;;;;;13.79;99.91;99789.69;5020713;28;20214;-68
2023/05/05 04:30:36;;;;;;;10.47;9.67;;;;;;;13.79;99.84;99803.03;5022420;28;20181;-68
2023/05/05 04:33:03;;;;;;;10.87;9.90;;;;;;;13.81;99.29;99802.84;5022262;28;20197;-68
2023/05/05 04:35:31;;;;;;;17.77;9.93;;;;;;;13.84;99.07;99797.91;5019162;28;20244;-67
2023/05/05 04:37:58;;;;;;;10.57;9.47;;;;;;;13.80;99.37;99809.22;5022232;28;20262;-67
2023/05/05 04:40:25;;;;;;;44.43;12.40;;;;;;;13.69;99.31;99802.63;5022135;28;20194;-67
2023/05/05 04:42:51;;;;;;;11.50;9.47;;;;;;;13.73;99.00;99806.53;5020366;28;20221;-67
2023/05/05 04:45:18;;;;;;;8.67;8.07;;;;;;;13.61;97.76;99808.22;5021859;28;20192;-67
2023/05/05 04:47:45;;;;;;;9.03;8.20;;;;;;;13.55;96.56;99803.69;5021037;28;20224;-66
2023/05/05 04:50:12;;;;;;;8.53;7.83;;;;;;;13.47;96.25;99795.06;5020739;28;20193;-67
2023/05/05 04:52:40;;;;;;;8.07;7.57;;;;;;;13.53;95.26;99803.09;5021531;28;20188;-66
2023/05/05 04:55:09;;;;;;;8.67;7.77;;;;;;;13.55;95.20;99803.69;5020019;28;20193;-67
2023/05/05 04:57:35;;;;;;;8.40;7.90;;;;;;;13.60;94.37;99805.75;5019839;28;20197;-66
2023/05/05 05:00:04;;;;;;;42.17;9.20;;;;;;;13.58;94.42;99802.47;5024226;28;20560;-67
2023/05/05 05:02:30;;;;;;;21.57;8.33;;;;;;;13.60;94.21;99797.75;5022632;28;20281;-66
2023/05/05 05:04:57;;;;;;;11.93;7.93;;;;;;;13.62;94.08;99799.19;5015020;28;20228;-68
2023/05/05 05:07:24;;;;;;;11.13;7.90;;;;;;;13.69;94.28;99810.66;5017536;28;20225;-67
2023/05/05 05:09:52;;;;;;;9.03;7.77;;;;;;;13.77;94.39;99807.75;5020337;28;20687;-67
2023/05/05 05:12:19;;;;;;;10.13;8.23;;;;;;;13.93;93.78;99811.84;5022238;28;20201;-67
2023/05/05 05:14:46;;;;;;;8.30;7.70;;;;;;;13.94;92.85;99808.97;5018183;28;20193;-67
2023/05/05 05:17:13;;;;;;;18.57;8.13;;;;;;;14.00;92.56;99807.28;5019111;28;20201;-68
2023/05/05 05:19:39;;;;;;;17.90;8.57;;;;;;;14.02;92.55;99822.09;5021294;28;20190;-67
2023/05/05 05:22:06;;;;;;;29.90;10.63;;;;;;;14.11;92.28;99809.31;5019207;28;20635;-66
2023/05/05 05:24:33;;;;;;;12.60;9.00;;;;;;;14.29;91.45;99820.19;5019354;28;20267;-66
2023/05/05 05:27:01;;;;;;;10.97;8.27;;;;;;;14.31;91.53;99820.78;5023813;28;20585;-69
2023/05/05 05:29:28;;;;;;;9.00;7.97;;;;;;;14.37;91.01;99817.25;5022178;28;20221;-65
2023/05/05 05:31:54;;;;;;;12.97;8.83;;;;;;;14.47;90.74;99815.78;5022510;28;20202;-68
2023/05/05 05:34:21;;;;;;;16.53;8.57;;;;;;;14.68;90.67;99818.16;5025041;28;20250;-68
2023/05/05 05:36:48;;;;;;;9.93;8.53;;;;;;;14.77;89.84;99819.53;5023119;28;20190;-68
2023/05/05 05:39:14;;;;;;;13.57;8.43;;;;;;;14.67;89.92;99816.47;5023676;28;20189;-69
2023/05/05 05:41:41;;;;;;;9.20;8.00;;;;;;;14.72;90.16;99819.34;5022847;28;20259;-71
2023/05/05 05:44:09;;;;;;;10.07;8.13;;;;;;;14.59;89.95;99832.78;5032764;28;20194;-69
2023/05/05 05:46:36;;;;;;;8.67;7.87;;;;;;;14.52;89.70;99818.66;5033330;28;20623;-72
2023/05/05 05:49:03;;;;;;;18.80;8.57;;;;;;;14.78;89.17;99844.41;5016344;28;20300;-70
2023/05/05 05:51:30;;;;;;;8.90;8.10;;;;;;;14.84;88.98;99833.69;5027913;28;20247;-70
2023/05/05 05:53:57;;;;;;;7.70;7.07;;;;;;;14.76;88.81;99839.28;5032960;28;20204;-71
2023/05/05 05:56:23;;;;;;;29.97;8.23;;;;;;;14.91;88.06;99844.34;5033652;28;20193;-69
2023/05/05 05:58:50;;;;;;;8.07;7.23;;;;;;;14.96;87.35;99837.28;5028206;28;20620;-70
2023/05/05 06:01:18;;;;;;;7.93;7.20;;;;;;;14.99;86.27;99838.75;5031994;28;20204;-69
2023/05/05 06:03:45;;;;;;;8.20;7.50;;;;;;;14.97;86.57;99836.28;5033730;28;20263;-69
2023/05/05 06:06:12;;;;;;;8.57;7.27;;;;;;;15.05;86.25;99841.38;5033664;28;20263;-69
2023/05/05 06:08:38;;;;;;;11.77;7.53;;;;;;;15.09;85.74;99831.88;5032958;28;20217;-70
2023/05/05 06:11:05;;;;;;;8.40;7.40;;;;;;;15.12;84.91;99836.78;5031655;28;20644;-67
2023/05/05 06:13:32;;;;;;;10.17;7.73;;;;;;;15.21;84.55;99835.50;5019493;28;20256;-68
2023/05/05 06:15:58;;;;;;;8.43;7.63;;;;;;;15.34;83.58;99838.09;5017954;28;20259;-69
2023/05/05 06:18:27;;;;;;;8.43;7.73;;;;;;;15.42;83.70;99843.19;5014514;28;20197;-68
2023/05/05 06:20:53;;;;;;;16.90;7.87;;;;;;;15.71;83.06;99845.19;5013649;28;20201;-70
2023/05/05 06:23:20;;;;;;;29.47;9.03;;;;;;;15.92;81.54;99849.28;5013539;28;20256;-68
2023/05/05 06:25:47;;;;;;;6.90;6.30;;;;;;;16.25;79.56;99859.69;5024429;28;20705;-69
2023/05/05 06:28:14;;;;;;;10.83;7.80;;;;;;;16.27;79.54;99853.06;5031986;28;20213;-67
2023/05/05 06:30:40;;;;;;;7.67;7.00;;;;;;;16.37;79.35;99852.53;5031973;28;20182;-66
2023/05/05 06:33:07;;;;;;;30.13;8.07;;;;;;;16.52;78.04;99855.66;5019889;28;20220;-68
2023/05/05 06:35:35;;;;;;;8.33;6.57;;;;;;;16.61;77.73;99854.34;5013904;28;20732;-67
2023/05/05 06:38:02;;;;;;;18.13;9.30;;;;;;;16.63;77.18;99858.44;5013346;28;20202;-67
2023/05/05 06:40:28;;;;;;;7.00;6.37;;;;;;;16.56;77.64;99862.22;5013759;28;20194;-68
2023/05/05 06:42:55;;;;;;;6.63;6.10;;;;;;;16.76;76.46;99857.41;5022148;28;20205;-67
2023/05/05 06:45:22;;;;;;;9.23;5.70;;;;;;;16.69;75.07;99856.69;5034096;28;20193;-67
2023/05/05 06:47:48;;;;;;;5.73;5.33;;;;;;;16.82;75.07;99853.84;5033548;28;20224;-67
2023/05/05 06:50:15;;;;;;;7.53;6.43;;;;;;;17.10;73.82;99862.09;5026492;28;20773;-67
2023/05/05 06:52:43;;;;;;;11.17;5.83;;;;;;;17.27;73.51;99858.53;5014027;28;20195;-67
2023/05/05 06:55:10;;;;;;;9.77;5.27;;;;;;;17.79;74.17;99855.00;5023851;28;20201;-67
2023/05/05 06:57:36;;;;;;;5.40;4.90;;;;;;;18.11;69.84;99868.91;5033466;28;20664;-68
2023/05/05 07:00:04;;;;;;;9.63;5.17;;;;;;;18.07;69.79;99865.03;5032187;28;20272;-68
2023/05/05 07:02:32;;;;;;;8.07;5.37;;;;;;;18.32;69.58;99860.22;5032271;28;20729;-68
2023/05/05 07:04:59;;;;;;;5.67;5.17;;;;;;;18.62;68.72;99866.28;5017315;28;20281;-68
2023/05/05 07:07:26;;;;;;;6.70;5.13;;;;;;;18.65;67.31;99871.16;5012706;28;20249;-69
2023/05/05 07:09:55;;;;;;;5.13;4.73;;;;;;;18.83;66.36;99868.31;5012501;28;20194;-69
2023/05/05 07:12:21;;;;;;;8.67;5.27;;;;;;;19.01;66.06;99870.78;5012341;28;20233;-68
2023/05/05 07:14:48;;;;;;;10.50;4.67;;;;;;;19.58;64.06;99869.69;5030474;28;20194;-71
2023/05/05 07:17:15;;;;;;;5.97;4.37;;;;;;;19.93;62.50;99854.84;5012955;28;20683;-68
2023/05/05 07:19:41;;;;;;;4.90;4.60;;;;;;;20.25;61.65;99861.28;5013390;28;20194;-67
2023/05/05 07:22:08;;;;;;;9.87;5.00;;;;;;;20.41;60.52;99862.28;5013326;28;20203;-67
2023/05/05 07:24:35;;;;;;;18.67;5.97;;;;;;;20.17;59.63;99868.97;5016351;28;20193;-67
2023/05/05 07:27:03;;;;;;;7.10;4.93;;;;;;;19.95;60.82;99868.09;5031372;28;20248;-68
2023/05/05 07:29:30;;;;;;;23.67;5.20;;;;;;;20.33;62.08;99866.25;5026340;28;20725;-68
2023/05/05 07:31:57;;;;;;;5.23;3.80;;;;;;;20.36;58.74;99875.72;5024545;28;20187;-69
2023/05/05 07:34:24;;;;;;;4.30;4.00;;;;;;;20.37;59.48;99840.41;5012885;28;20198;-67
2023/05/05 07:36:50;;;;;;;4.53;4.17;;;;;;;20.81;58.04;99878.16;5012996;28;20198;-68
2023/05/05 07:39:23;;;;;;;4.50;4.30;;;;;;;20.43;57.27;99870.97;5012928;28;20681;-68
2023/05/05 07:41:50;;;;;;;17.07;4.80;;;;;;;20.28;58.38;99878.84;5018740;28;20248;-69
2023/05/05 07:44:18;;;;;;;7.20;4.67;;;;;;;20.23;59.26;99866.13;5014032;28;20268;-68
2023/05/05 07:46:45;;;;;;;7.07;4.57;;;;;;;20.42;57.84;99880.94;5012831;28;20194;-69
2023/05/05 07:49:12;;;;;;;6.77;3.97;;;;;;;20.61;56.79;99873.34;5012359;28;20680;-67
2023/05/05 07:51:38;;;;;;;4.27;3.97;;;;;;;20.54;56.70;99883.50;5017075;28;20228;-68
2023/05/05 07:54:05;;;;;;;4.10;3.90;;;;;;;20.97;57.45;99882.69;5017514;28;20193;-69
2023/05/05 07:56:32;;;;;;;16.67;4.53;;;;;;;21.28;57.30;99874.69;5013249;28;20194;-68
2023/05/05 07:58:59;;;;;;;4.20;4.00;;;;;;;21.50;55.73;99877.28;5012723;28;20206;-69
2023/05/05 08:01:27;;;;;;;4.03;3.83;;;;;;;21.68;54.75;99877.72;5013014;28;20686;-68
2023/05/05 08:03:53;;;;;;;4.63;3.50;;;;;;;21.46;53.90;99876.16;5020585;28;20197;-69
2023/05/05 08:06:20;;;;;;;4.47;4.07;;;;;;;21.82;53.38;99881.66;5031484;28;20201;-68
2023/05/05 08:08:48;;;;;;;4.03;3.80;;;;;;;21.91;52.74;99869.28;5032288;28;20225;-69
2023/05/05 08:11:15;;;;;;;4.80;4.50;;;;;;;21.88;53.31;99858.97;5032254;28;20208;-68
2023/05/05 08:13:43;;;;;;;4.67;4.30;;;;;;;22.04;54.27;99858.00;5032283;28;20193;-68
2023/05/05 08:16:10;;;;;;;3.97;3.67;;;;;;;21.99;53.16;99859.84;5017034;28;20301;-68
2023/05/05 08:18:38;;;;;;;4.13;3.83;;;;;;;22.20;53.64;99845.34;5013068;28;20329;-68
2023/05/05 08:21:06;;;;;;;3.90;3.60;;;;;;;22.24;52.73;99850.00;5028274;28;20197;-68
2023/05/05 08:23:32;;;;;;;4.33;4.13;;;;;;;22.66;51.35;99850.75;5032625;28;20197;-68
2023/05/05 08:25:59;;;;;;;4.90;4.50;;;;;;;22.47;52.28;99851.47;5031985;28;20731;-68
2023/05/05 08:28:26;;;;;;;4.93;4.53;;;;;;;22.58;52.02;99848.53;5027150;28;20229;-69
2023/05/05 08:30:53;;;;;;;14.47;4.27;;;;;;;22.64;52.55;99847.50;5012416;28;20194;-68
2023/05/05 08:33:19;;;;;;;63.40;7.53;;;;;;;22.95;52.13;99843.78;5012202;28;20550;-68
2023/05/05 08:35:48;;;;;;;4.17;3.80;;;;;;;23.00;51.34;99846.53;5012539;28;20732;-69
2023/05/05 08:38:15;;;;;;;4.70;4.23;;;;;;;23.33;50.37;99840.63;5014272;28;20260;-69
2023/05/05 08:40:42;;;;;;;4.70;4.30;;;;;;;23.68;48.20;99848.75;5032283;28;20242;-68
2023/05/05 08:43:09;;;;;;;5.30;3.93;;;;;;;23.24;49.38;99793.44;5022806;28;20201;-68
2023/05/05 08:45:36;;;;;;;5.00;4.30;;;;;;;23.49;49.93;99842.25;5013033;28;20252;-67
2023/05/05 08:48:05;;;;;;;5.17;4.27;;;;;;;23.68;48.62;99837.91;5012310;28;20284;-68
2023/05/05 08:50:32;;;;;;;24.93;5.27;;;;;;;23.73;49.05;99835.19;5020553;28;20622;-69
2023/05/05 08:53:09;;;;;;;6.07;4.00;;;;;;;24.00;47.41;99843.88;5031630;28;20225;-69
2023/05/05 08:55:38;;;;;;;6.03;4.03;;;;;;;24.49;47.03;99844.81;5016777;28;20192;-68
2023/05/05 08:58:06;;;;;;;11.73;4.83;;;;;;;24.82;46.51;99835.97;5011900;28;20242;-68
2023/05/05 09:00:33;;;;;;;4.10;3.70;;;;;;;24.99;45.41;99838.31;5012189;28;20193;-69
2023/05/05 09:03:01;;;;;;;4.97;4.57;;;;;;;24.89;45.55;99841.94;5016565;28;20196;-68
2023/05/05 09:05:28;;;;;;;4.13;3.83;;;;;;;24.84;45.13;99839.22;5035651;28;20198;-69
2023/05/05 09:07:55;;;;;;;10.07;4.23;;;;;;;24.54;45.28;99842.06;5036004;28;20280;-68
2023/05/05 09:10:26;;;;;;;4.27;4.07;;;;;;;24.41;45.46;99834.50;5035861;28;20195;-68
2023/05/05 09:12:53;;;;;;;4.63;3.87;;;;;;;24.21;46.34;99831.88;5035580;28;20191;-68
2023/05/05 09:15:19;;;;;;;3.93;3.73;;;;;;;23.83;50.13;99827.03;5034384;28;20218;-64
2023/05/05 09:17:47;;;;;;;3.73;3.63;;;;;;;24.15;47.79;99832.97;5034977;28;20195;-64
2023/05/05 09:20:15;;;;;;;4.63;4.23;;;;;;;24.09;47.40;99823.22;5035442;28;20197;-65
2023/05/05 09:22:42;;;;;;;4.10;3.70;;;;;;;24.22;47.55;99825.34;5034743;28;20199;-64
2023/05/05 09:25:11;;;;;;;7.17;4.03;;;;;;;24.37;46.94;99819.03;5039010;28;20202;-66
2023/05/05 09:27:40;;;;;;;4.17;3.87;;;;;;;24.58;46.09;99823.28;5043163;28;20293;-64
2023/05/05 09:30:09;;;;;;;4.70;4.17;;;;;;;25.09;44.69;99816.50;5043339;28;20277;-63
2023/05/05 09:32:46;;;;;;;4.03;3.73;;;;;;;25.36;43.09;99818.78;5034432;28;20201;-63
2023/05/05 09:35:13;;;;;;;6.20;5.63;;;;;;;25.09;45.06;99805.63;5022901;28;20839;-66
2023/05/05 09:37:41;;;;;;;5.47;4.10;;;;;;;25.28;44.46;99809.34;5034357;28;20266;-67
2023/05/05 09:40:09;;;;;;;4.67;4.37;;;;;;;25.33;43.34;99809.28;5032709;28;20204;-65
2023/05/05 09:42:37;;;;;;;15.03;13.57;;;;;;;25.55;46.59;99809.63;5024945;28;20572;-65
2023/05/05 09:45:25;;;;;;;7.70;7.10;;;;;;;25.96;44.54;99804.66;5030472;28;20198;-68
2023/05/05 09:47:52;;;;;;;7.83;6.50;;;;;;;26.02;42.92;99806.22;5032988;28;20189;-68
2023/05/05 09:50:19;;;;;;;8.47;5.33;;;;;;;26.22;41.36;99808.72;5017820;28;20224;-70
2023/05/05 09:52:54;;;;;;;5.07;4.67;;;;;;;26.40;41.61;99797.03;5014338;28;20193;-69
2023/05/05 09:55:21;;;;;;;4.60;4.20;;;;;;;26.49;38.63;99798.81;5013545;28;20243;-67
2023/05/05 09:57:48;;;;;;;4.50;3.80;;;;;;;26.58;37.29;99796.31;5013392;28;20553;-66
2023/05/05 10:00:17;;;;;;;6.63;5.93;;;;;;;26.64;39.73;99795.13;5012576;28;20198;-66
2023/05/05 10:02:43;;;;;;;4.70;3.03;;;;;;;26.64;37.17;99800.56;5014307;28;20248;-68
2023/05/05 10:05:12;;;;;;;4.47;3.87;;;;;;;26.55;38.52;99791.41;5030033;28;20189;-66
2023/05/05 10:07:40;;;;;;;5.13;3.20;;;;;;;26.33;37.44;99788.44;5033483;28;20276;-63
2023/05/05 10:10:13;;;;;;;3.93;3.70;;;;;;;26.37;39.17;99784.81;5033666;28;20225;-70
2023/05/05 10:12:40;;;;;;;4.60;4.30;;;;;;;26.50;40.19;99783.31;5032237;28;20190;-65
2023/05/05 10:15:10;;;;;;;4.00;3.43;;;;;;;26.60;37.68;99784.00;5031671;28;20229;-67
2023/05/05 10:17:45;;;;;;;3.10;3.00;;;;;;;26.65;36.98;99777.66;5028431;28;20218;-64
2023/05/05 10:20:14;;;;;;;4.40;4.00;;;;;;;26.65;37.16;99770.31;5033340;28;20193;-65
2023/05/05 10:22:45;;;;;;;3.93;3.63;;;;;;;26.30;38.58;99768.00;5043962;28;20208;-65
2023/05/05 10:25:14;;;;;;;3.60;3.40;;;;;;;26.37;38.67;99763.00;5039767;28;20692;-63
2023/05/05 10:27:45;;;;;;;3.50;3.30;;;;;;;26.38;38.56;99756.47;5032623;28;20205;-64
2023/05/05 10:30:20;;;;;;;17.43;4.87;;;;;;;26.61;38.83;99754.81;5032880;28;20229;-64
2023/05/05 10:32:51;;;;;;;3.93;3.63;;;;;;;26.60;37.00;99751.31;5024008;28;20239;-65
2023/05/05 10:35:23;;;;;;;4.80;3.80;;;;;;;26.75;36.95;99756.50;5033127;28;20201;-64
2023/05/05 10:37:49;;;;;;;4.30;4.07;;;;;;;26.95;36.48;99752.69;5017424;28;20186;-65
2023/05/05 10:40:17;;;;;;;5.27;3.70;;;;;;;27.10;36.46;99745.06;5013821;28;20198;-65
2023/05/05 10:42:44;;;;;;;6.13;3.60;;;;;;;26.35;37.67;99742.63;5012981;28;20204;-67
2023/05/05 10:45:11;;;;;;;4.27;3.67;;;;;;;26.46;36.94;99746.84;5030870;28;20247;-64
2023/05/05 10:47:39;;;;;;;4.63;4.13;;;;;;;26.52;37.83;99740.19;5032412;28;20255;-65
2023/05/05 10:50:15;;;;;;;4.30;3.90;;;;;;;26.45;38.35;99742.50;5024001;28;20754;-66
2023/05/05 10:52:52;;;;;;;4.23;3.90;;;;;;;26.52;38.47;99732.03;5015759;28;20192;-64
2023/05/05 10:55:28;;;;;;;4.13;3.67;;;;;;;26.79;38.30;99726.75;5023257;28;20181;-65
2023/05/05 10:57:54;;;;;;;6.73;3.93;;;;;;;26.79;36.77;99726.75;5032866;28;20223;-65
2023/05/05 11:00:50;;;;;;;6.60;3.60;;;;;;;26.67;38.94;99726.41;5032266;28;20198;-66
2023/05/05 11:03:22;;;;;;;22.90;4.83;;;;;;;27.01;37.86;99719.59;5029717;28;20200;-66
2023/05/05 11:06:15;;;;;;;6.57;4.67;;;;;;;27.18;37.53;99729.94;5017073;28;20268;-66
2023/05/05 11:08:43;;;;;;;6.70;4.20;;;;;;;27.16;36.01;99723.97;5012316;28;20980;-66
2023/05/05 11:11:10;;;;;;;6.10;4.23;;;;;;;27.27;37.72;99717.28;5013384;28;20190;-65
2023/05/05 11:13:38;;;;;;;4.73;4.33;;;;;;;27.30;36.30;99713.94;5012805;28;20194;-65
2023/05/05 11:16:05;;;;;;;3.87;3.67;;;;;;;27.30;37.20;99711.19;5013557;28;20252;-64
2023/05/05 11:18:37;;;;;;;4.27;3.83;;;;;;;27.27;35.57;99692.72;5020718;28;20201;-64
2023/05/05 11:21:16;;;;;;;4.87;3.93;;;;;;;27.09;36.55;99685.34;5015220;28;20621;-65
2023/05/05 11:23:50;;;;;;;4.57;4.27;;;;;;;26.98;36.93;99703.00;5015081;28;20181;-70
2023/05/05 11:26:19;;;;;;;3.80;3.50;;;;;;;26.55;37.74;99696.03;5027739;28;20669;-66
2023/05/05 11:28:57;;;;;;;7.37;3.80;;;;;;;26.37;38.45;99696.84;5024318;28;20279;-66
2023/05/05 11:31:24;;;;;;;5.77;4.03;;;;;;;26.13;38.18;99693.34;5026803;28;20248;-66